Terminal Aerodrome Forecast
Issued by NWS

Home | Current Version | Previous Version | Text Only | Print | Product List | Glossary On
Versions: 1 2 3 4 5 6 7 8 9 10 11 12 13 14 15 16 17 18 19 20
000
FTUS41 KCAR 152333
TAFBHB
TAF
KBHB 152333Z 1600/1624 VRB03KT P6SM BKN120
     FM160600 02007KT 5SM -SN SCT025 OVC035
     FM160900 01008KT 4SM -SN OVC025
     FM161200 35005KT P6SM BKN100=

USA.gov is the U.S. government's official web portal to all federal, state and local government web resources and services.